createdAt,value
2022-10-24T00:01:20.859Z,1.85
2022-10-24T00:03:48.161Z,1.96
2022-10-24T00:06:15.649Z,1.87
2022-10-24T00:08:43.404Z,1.82
2022-10-24T00:11:16.913Z,1.96
2022-10-24T00:13:43.616Z,1.76
2022-10-24T00:16:11.506Z,1.62
2022-10-24T00:18:40.375Z,1.79
2022-10-24T00:21:07.891Z,1.67
2022-10-24T00:23:35.144Z,1.63
2022-10-24T00:26:04.259Z,1.80
2022-10-24T00:28:36.205Z,1.84
2022-10-24T00:31:03.736Z,1.76
2022-10-24T00:33:30.349Z,1.79
2022-10-24T00:35:59.075Z,1.81
2022-10-24T00:38:25.743Z,1.41
2022-10-24T00:40:52.395Z,1.31
2022-10-24T00:43:22.599Z,1.47
2022-10-24T00:46:02.338Z,1.33
2022-10-24T00:48:47.684Z,1.29
2022-10-24T00:51:27.956Z,1.49
2022-10-24T00:54:00.865Z,1.34
2022-10-24T00:56:32.443Z,1.23
2022-10-24T00:59:02.172Z,1.27
2022-10-24T01:01:28.858Z,1.40
2022-10-24T01:03:55.565Z,1.27
2022-10-24T01:06:46.988Z,1.20
2022-10-24T01:09:19.601Z,1.39
2022-10-24T01:11:48.921Z,1.27
2022-10-24T01:14:45.984Z,1.19
2022-10-24T01:17:33.901Z,1.42
2022-10-24T01:20:03.403Z,1.32
2022-10-24T01:22:59.124Z,1.34
2022-10-24T01:25:42.283Z,1.43
2022-10-24T01:28:54.880Z,1.33
2022-10-24T01:31:32.350Z,1.26
2022-10-24T01:34:15.704Z,1.45
2022-10-24T01:36:50.277Z,1.45
2022-10-24T01:39:19.962Z,1.34
2022-10-24T01:41:47.716Z,1.41
2022-10-24T01:44:27.532Z,1.49
2022-10-24T01:47:04.657Z,1.40
2022-10-24T01:49:36.566Z,1.41
2022-10-24T01:52:08.209Z,1.57
2022-10-24T01:54:37.488Z,1.43
2022-10-24T01:57:05.596Z,1.26
2022-10-24T01:59:34.816Z,1.36
2022-10-24T02:02:08.753Z,1.42
2022-10-24T02:04:38.789Z,1.26
2022-10-24T02:07:12.809Z,1.19
2022-10-24T02:09:43.444Z,1.41
2022-10-24T02:12:16.502Z,1.40
2022-10-24T02:14:52.012Z,1.37
2022-10-24T02:17:18.838Z,1.56
2022-10-24T02:19:47.089Z,1.60
2022-10-24T02:22:28.115Z,1.66
2022-10-24T02:25:02.299Z,1.79
2022-10-24T02:27:37.836Z,1.87
2022-10-24T02:30:09.638Z,1.76
2022-10-24T02:32:41.161Z,1.77
2022-10-24T02:35:11.656Z,1.95
2022-10-24T02:37:45.693Z,1.89
2022-10-24T02:40:14.747Z,1.88
2022-10-24T02:42:44.500Z,1.97
2022-10-24T02:45:13.109Z,1.97
2022-10-24T02:47:42.989Z,1.83
2022-10-24T02:50:10.448Z,1.83
2022-10-24T02:52:42.017Z,1.95
2022-10-24T02:55:09.532Z,1.72
2022-10-24T02:57:36.795Z,1.63
2022-10-24T03:00:04.250Z,1.84
2022-10-24T03:02:31.087Z,1.83
2022-10-24T03:04:57.724Z,1.76
2022-10-24T03:07:24.319Z,1.81
2022-10-24T03:09:50.996Z,2.00
2022-10-24T03:12:17.843Z,1.86
2022-10-24T03:14:45.752Z,1.84
2022-10-24T03:17:12.980Z,1.99
2022-10-24T03:19:39.596Z,2.05
2022-10-24T03:22:06.220Z,2.03
2022-10-24T03:24:44.041Z,2.12
2022-10-24T03:27:11.685Z,2.23
2022-10-24T03:29:38.415Z,2.14
2022-10-24T03:32:05.732Z,2.13
2022-10-24T03:34:32.692Z,2.33
2022-10-24T03:36:59.444Z,2.30
2022-10-24T03:39:26.536Z,2.22
2022-10-24T03:41:53.236Z,2.32
2022-10-24T03:44:19.825Z,2.37
2022-10-24T03:46:46.393Z,2.29
2022-10-24T03:49:12.984Z,2.29
2022-10-24T03:51:39.592Z,2.49
2022-10-24T03:54:06.256Z,2.34
2022-10-24T03:56:36.243Z,2.27
2022-10-24T03:59:03.624Z,2.29
2022-10-24T04:01:30.368Z,2.17
2022-10-24T04:03:57.127Z,1.89
2022-10-24T04:06:23.862Z,1.83
2022-10-24T04:08:50.436Z,2.01
2022-10-24T04:11:17.085Z,1.80
2022-10-24T04:13:46.092Z,1.73
2022-10-24T04:16:12.673Z,1.93
2022-10-24T04:18:39.269Z,1.88
2022-10-24T04:21:06.668Z,1.77
2022-10-24T04:23:35.817Z,1.84
2022-10-24T04:26:02.404Z,1.98
2022-10-24T04:28:30.311Z,1.81
2022-10-24T04:30:57.629Z,1.77
2022-10-24T04:33:24.894Z,1.91
2022-10-24T04:35:52.576Z,1.76
2022-10-24T04:38:19.706Z,1.57
2022-10-24T04:40:50.940Z,1.55
2022-10-24T04:43:18.330Z,1.61
2022-10-24T04:45:45.233Z,1.40
2022-10-24T04:48:11.996Z,1.38
2022-10-24T04:50:40.580Z,1.55
2022-10-24T04:53:07.500Z,1.45
2022-10-24T04:58:05.960Z,1.41
2022-10-24T05:00:34.575Z,1.56
2022-10-24T05:03:01.191Z,1.45
2022-10-24T05:05:28.096Z,1.40
2022-10-24T05:07:54.758Z,1.60
2022-10-24T05:10:21.449Z,1.66
2022-10-24T05:12:48.393Z,1.70
2022-10-24T05:15:15.119Z,1.79
2022-10-24T05:17:41.944Z,1.98
2022-10-24T05:20:09.242Z,1.92
2022-10-24T05:22:35.939Z,1.88
2022-10-24T05:25:03.293Z,2.03
2022-10-24T05:27:30.047Z,1.86
2022-10-24T05:29:56.700Z,1.74
2022-10-24T05:32:24.124Z,1.86
2022-10-24T05:34:53.575Z,2.08
2022-10-24T05:37:20.421Z,2.09
2022-10-24T05:39:49.264Z,2.14
2022-10-24T05:42:16.349Z,2.31
2022-10-24T05:44:45.089Z,2.40
2022-10-24T05:47:11.777Z,2.35
2022-10-24T05:49:38.620Z,2.46
2022-10-24T05:52:05.447Z,2.60
2022-10-24T05:54:42.516Z,2.50
2022-10-24T05:57:21.769Z,2.55
2022-10-24T05:59:49.620Z,2.73
2022-10-24T06:02:20.633Z,2.63
2022-10-24T06:04:48.561Z,2.62
2022-10-24T06:07:15.378Z,2.81
2022-10-24T06:09:44.724Z,2.75
2022-10-24T06:12:12.144Z,2.71
2022-10-24T06:14:40.283Z,2.85
2022-10-24T06:17:09.255Z,2.90
2022-10-24T06:19:37.098Z,2.81
2022-10-24T06:22:04.883Z,2.84
2022-10-24T06:24:31.549Z,3.00
2022-10-24T06:27:00.553Z,2.87
2022-10-24T06:29:27.172Z,2.81
2022-10-24T06:31:53.795Z,3.03
2022-10-24T06:36:47.842Z,2.88
2022-10-24T06:39:14.404Z,3.03
2022-10-24T06:41:41.169Z,3.10
2022-10-24T06:44:10.974Z,3.03
2022-10-24T06:46:38.319Z,3.08
2022-10-24T06:49:05.075Z,3.24
2022-10-24T06:51:31.871Z,3.16
2022-10-24T06:53:59.127Z,3.19
2022-10-24T06:56:26.904Z,3.39
2022-10-24T06:58:54.138Z,3.28
2022-10-24T07:01:25.238Z,3.21
2022-10-24T07:03:53.024Z,3.41
2022-10-24T07:06:23.945Z,3.36
2022-10-24T07:08:51.968Z,3.29
2022-10-24T07:11:19.088Z,3.54
2022-10-24T07:13:45.623Z,3.50
2022-10-24T07:16:12.577Z,3.42
2022-10-24T07:18:39.335Z,3.57
2022-10-24T07:21:08.836Z,3.63
2022-10-24T07:23:35.846Z,3.56
2022-10-24T07:26:05.144Z,3.64
2022-10-24T07:28:32.164Z,3.71
2022-10-24T07:30:59.615Z,3.61
2022-10-24T07:33:26.659Z,3.62
2022-10-24T07:35:53.556Z,3.80
2022-10-24T07:38:20.596Z,3.69
2022-10-24T07:40:47.535Z,3.68
2022-10-24T07:43:14.785Z,3.87
2022-10-24T07:45:42.496Z,3.76
2022-10-24T07:48:10.444Z,3.70
2022-10-24T07:50:44.112Z,3.89
2022-10-24T07:53:12.073Z,3.81
2022-10-24T07:55:43.500Z,3.75
2022-10-24T07:58:11.970Z,3.94
2022-10-24T08:00:44.824Z,3.91
2022-10-24T08:03:12.010Z,3.78
2022-10-24T08:05:40.176Z,3.94
2022-10-24T08:10:53.995Z,3.78
2022-10-24T08:13:20.702Z,3.93
2022-10-24T08:15:47.387Z,3.93
2022-10-24T08:18:14.016Z,3.84
2022-10-24T08:20:40.689Z,3.99
2022-10-24T08:23:07.395Z,4.03
2022-10-24T08:25:34.245Z,3.89
2022-10-24T08:28:02.828Z,3.96
2022-10-24T08:30:32.093Z,4.12
2022-10-24T08:32:58.696Z,4.02
2022-10-24T08:35:25.873Z,4.06
2022-10-24T08:37:55.676Z,4.19
2022-10-24T08:40:22.316Z,4.11
2022-10-24T08:42:49.616Z,4.08
2022-10-24T08:45:28.996Z,4.29
2022-10-24T08:48:08.483Z,4.13
2022-10-24T08:50:36.847Z,4.18
2022-10-24T08:53:31.693Z,4.36
2022-10-24T08:56:03.665Z,4.21
2022-10-24T08:58:46.193Z,4.25
2022-10-24T09:01:32.923Z,4.38
2022-10-24T09:04:05.105Z,4.25
2022-10-24T09:06:33.367Z,4.31
2022-10-24T09:09:00.775Z,4.49
2022-10-24T09:11:30.387Z,4.31
2022-10-24T09:14:01.407Z,4.32
2022-10-24T09:16:28.103Z,4.49
2022-10-24T09:18:57.212Z,4.39
2022-10-24T09:21:24.516Z,4.37
2022-10-24T09:23:51.863Z,4.59
2022-10-24T09:26:31.204Z,4.48
2022-10-24T09:28:58.493Z,4.44
2022-10-24T09:31:29.211Z,4.63
2022-10-24T09:33:56.673Z,4.57
2022-10-24T09:36:25.107Z,4.52
2022-10-24T09:38:52.124Z,4.69
2022-10-24T09:41:33.817Z,4.65
2022-10-24T09:44:01.594Z,4.55
2022-10-24T09:46:45.481Z,4.74
2022-10-24T09:49:20.024Z,4.69
2022-10-24T09:51:48.012Z,4.60
2022-10-24T09:54:20.408Z,4.61
2022-10-24T09:56:57.556Z,4.84
2022-10-24T09:59:42.785Z,4.81
2022-10-24T10:02:27.389Z,4.77
2022-10-24T10:05:03.021Z,4.77
2022-10-24T10:07:34.848Z,4.93
2022-10-24T10:10:08.049Z,4.90
2022-10-24T10:12:40.555Z,4.82
2022-10-24T10:15:28.223Z,4.85
2022-10-24T10:18:00.019Z,5.00
2022-10-24T10:20:44.686Z,4.87
2022-10-24T10:23:25.501Z,4.82
2022-10-24T10:26:02.602Z,4.93
2022-10-24T10:28:29.301Z,5.06
2022-10-24T10:30:59.696Z,4.96
2022-10-24T10:33:58.245Z,4.96
2022-10-24T10:36:32.119Z,5.11
2022-10-24T10:39:16.187Z,5.14
2022-10-24T10:42:25.731Z,5.08
2022-10-24T10:45:13.896Z,5.12
2022-10-24T10:48:08.922Z,5.29
2022-10-24T10:50:41.270Z,5.18
2022-10-24T10:53:38.748Z,5.15
2022-10-24T10:56:11.361Z,5.24
2022-10-24T10:58:52.012Z,5.37
2022-10-24T11:01:31.466Z,5.26
2022-10-24T11:04:08.478Z,5.25
2022-10-24T11:09:45.435Z,5.42
2022-10-24T11:12:22.928Z,5.37
2022-10-24T11:15:14.882Z,5.48
2022-10-24T11:18:18.023Z,5.60
2022-10-24T11:21:05.858Z,5.50
2022-10-24T11:23:39.230Z,5.53
2022-10-24T11:26:13.718Z,5.69
2022-10-24T11:29:15.351Z,5.54
2022-10-24T11:32:17.944Z,5.53
2022-10-24T11:34:56.232Z,5.69
2022-10-24T11:37:45.469Z,5.56
2022-10-24T11:40:20.451Z,5.65
2022-10-24T11:42:56.179Z,5.66
2022-10-24T11:45:39.388Z,5.54
2022-10-24T11:48:16.863Z,5.58
2022-10-24T11:50:59.668Z,5.63
2022-10-24T11:53:29.078Z,5.53
2022-10-24T11:56:00.613Z,5.55
2022-10-24T11:58:32.209Z,5.73
2022-10-24T12:01:30.232Z,5.57
2022-10-24T12:04:19.685Z,5.45
2022-10-24T12:07:07.952Z,5.64
2022-10-24T12:09:56.164Z,5.52
2022-10-24T12:12:36.007Z,5.43
2022-10-24T12:15:39.054Z,5.57
2022-10-24T12:18:34.812Z,5.50
2022-10-24T12:21:11.200Z,5.43
2022-10-24T12:23:39.904Z,5.57
2022-10-24T12:26:25.062Z,5.60
2022-10-24T12:29:03.705Z,5.47
2022-10-24T12:31:34.983Z,5.50
2022-10-24T12:34:39.117Z,5.60
2022-10-24T12:37:18.672Z,5.42
2022-10-24T12:39:51.013Z,5.44
2022-10-24T12:42:22.109Z,5.65
2022-10-24T12:44:53.553Z,5.50
2022-10-24T12:47:29.249Z,5.38
2022-10-24T12:49:56.820Z,5.54
2022-10-24T12:52:46.836Z,5.51
2022-10-24T12:55:39.795Z,5.38
2022-10-24T12:58:28.046Z,5.45
2022-10-24T13:00:58.211Z,5.51
2022-10-24T13:03:53.718Z,5.40
2022-10-24T13:06:32.580Z,5.45
2022-10-24T13:09:05.326Z,5.53
2022-10-24T13:12:06.721Z,5.41
2022-10-24T13:14:55.791Z,5.45
2022-10-24T13:17:40.508Z,5.57
2022-10-24T13:20:23.962Z,5.39
2022-10-24T13:22:51.560Z,5.40
2022-10-24T13:25:39.381Z,5.60
2022-10-24T13:28:24.046Z,5.43
2022-10-24T13:30:59.511Z,5.37
2022-10-24T13:33:28.808Z,5.51
2022-10-24T13:36:14.798Z,5.53
2022-10-24T13:38:49.353Z,5.42
2022-10-24T13:41:36.163Z,5.39
2022-10-24T13:44:10.287Z,5.54
2022-10-24T13:46:57.181Z,5.45
2022-10-24T13:49:33.870Z,5.44
2022-10-24T13:52:08.282Z,5.63
2022-10-24T13:54:38.348Z,5.52
2022-10-24T13:57:23.745Z,5.45
2022-10-24T13:59:57.693Z,5.62
2022-10-24T14:02:29.898Z,5.61
2022-10-24T14:04:59.119Z,5.49
2022-10-24T14:07:31.575Z,5.57
2022-10-24T14:10:14.352Z,5.64
2022-10-24T14:12:41.618Z,5.51
2022-10-24T14:15:19.352Z,5.54
2022-10-24T14:17:54.935Z,5.69
2022-10-24T14:20:29.167Z,5.57
2022-10-24T14:22:56.114Z,5.52
2022-10-24T14:25:24.415Z,5.70
2022-10-24T14:27:53.576Z,5.66
2022-10-24T14:30:23.336Z,5.57
2022-10-24T14:33:06.960Z,5.64
2022-10-24T14:35:34.089Z,5.73
2022-10-24T14:38:06.157Z,5.59
2022-10-24T14:40:37.751Z,5.57
2022-10-24T14:43:04.920Z,5.77
2022-10-24T14:45:32.095Z,5.65
2022-10-24T14:47:59.539Z,5.58
2022-10-24T14:50:39.748Z,5.65
2022-10-24T14:53:07.051Z,5.73
2022-10-24T14:55:35.653Z,5.59
2022-10-24T14:58:03.159Z,5.55
2022-10-24T15:00:38.048Z,5.71
2022-10-24T15:03:04.639Z,5.62
2022-10-24T15:05:40.068Z,5.54
2022-10-24T15:08:28.156Z,5.70
2022-10-24T15:11:16.255Z,5.62
2022-10-24T15:14:05.238Z,5.52
2022-10-24T15:16:37.699Z,5.66
2022-10-24T15:19:06.220Z,5.66
2022-10-24T15:21:38.863Z,5.55
2022-10-24T15:24:06.278Z,5.59
2022-10-24T15:26:40.994Z,5.71
2022-10-24T15:29:13.361Z,5.54
2022-10-24T15:31:42.839Z,5.55
2022-10-24T15:34:15.024Z,5.72
2022-10-24T15:36:43.603Z,5.62
2022-10-24T15:39:10.162Z,5.58
2022-10-24T15:41:38.669Z,5.73
2022-10-24T15:44:22.020Z,5.65
2022-10-24T15:46:48.943Z,5.55
2022-10-24T15:49:15.889Z,5.63
2022-10-24T15:51:48.925Z,5.70
2022-10-24T15:54:19.702Z,5.56
2022-10-24T15:56:47.208Z,5.60
2022-10-24T15:59:15.062Z,5.79
2022-10-24T16:01:47.583Z,5.62
2022-10-24T16:04:18.343Z,5.55
2022-10-24T16:06:45.031Z,5.72
2022-10-24T16:09:23.792Z,5.68
2022-10-24T16:11:52.590Z,5.61
2022-10-24T16:14:21.172Z,5.70
2022-10-24T16:16:47.945Z,5.75
2022-10-24T16:19:14.941Z,5.61
2022-10-24T16:21:42.082Z,5.61
2022-10-24T16:24:09.964Z,5.79
2022-10-24T16:26:36.692Z,5.67
2022-10-24T16:29:03.692Z,5.61
2022-10-24T16:31:31.364Z,5.76
2022-10-24T16:33:58.536Z,5.74
2022-10-24T16:36:25.179Z,5.64
2022-10-24T16:38:52.115Z,5.70
2022-10-24T16:41:22.835Z,5.86
2022-10-24T16:43:50.029Z,5.72
2022-10-24T16:46:20.156Z,5.73
2022-10-24T16:48:47.355Z,5.92
2022-10-24T16:51:17.780Z,5.78
2022-10-24T16:53:44.439Z,5.71
2022-10-24T16:56:13.121Z,5.87
2022-10-24T16:58:41.046Z,5.93
2022-10-24T17:01:14.026Z,5.79
2022-10-24T17:03:41.023Z,5.83
2022-10-24T17:06:10.187Z,5.98
2022-10-24T17:08:37.045Z,5.83
2022-10-24T17:11:20.192Z,5.82
2022-10-24T17:13:54.510Z,6.01
2022-10-24T17:16:23.525Z,5.86
2022-10-24T17:19:05.167Z,5.87
2022-10-24T17:21:36.844Z,6.07
2022-10-24T17:24:03.612Z,5.93
2022-10-24T17:26:30.406Z,5.90
2022-10-24T17:28:57.044Z,6.02
2022-10-24T17:31:23.799Z,6.09
2022-10-24T17:33:50.653Z,5.98
2022-10-24T17:36:26.516Z,6.03
2022-10-24T17:38:59.929Z,6.15
2022-10-24T17:41:30.967Z,6.03
2022-10-24T17:43:57.788Z,6.04
2022-10-24T17:46:24.631Z,6.22
2022-10-24T17:48:53.484Z,6.09
2022-10-24T17:51:23.535Z,6.04
2022-10-24T17:53:50.158Z,6.18
2022-10-24T17:56:19.443Z,6.19
2022-10-24T17:58:51.152Z,6.08
2022-10-24T18:01:17.883Z,6.16
2022-10-24T18:03:46.612Z,6.27
2022-10-24T18:06:14.716Z,6.13
2022-10-24T18:08:41.671Z,6.14
2022-10-24T18:11:12.963Z,6.32
2022-10-24T18:13:40.260Z,6.20
2022-10-24T18:16:11.496Z,6.14
2022-10-24T18:18:42.249Z,6.29
2022-10-24T18:21:25.112Z,6.22
2022-10-24T18:23:52.716Z,6.16
2022-10-24T18:26:22.796Z,6.26
2022-10-24T18:28:51.947Z,6.31
2022-10-24T18:31:21.083Z,6.19
2022-10-24T18:33:50.760Z,6.22
2022-10-24T18:36:26.729Z,6.33
2022-10-24T18:39:00.800Z,6.16
2022-10-24T18:41:56.742Z,6.16
2022-10-24T18:44:33.417Z,6.31
2022-10-24T18:47:03.114Z,6.18
2022-10-24T18:49:31.073Z,6.15
2022-10-24T18:52:14.795Z,6.32
2022-10-24T18:54:55.064Z,6.20
2022-10-24T18:57:27.931Z,6.16
2022-10-24T18:59:57.284Z,6.35
2022-10-24T19:02:23.817Z,6.31
2022-10-24T19:04:59.924Z,6.16
2022-10-24T19:07:26.604Z,6.31
2022-10-24T19:09:53.375Z,6.30
2022-10-24T19:12:20.048Z,6.20
2022-10-24T19:14:46.836Z,6.29
2022-10-24T19:17:16.163Z,6.41
2022-10-24T19:19:43.209Z,6.26
2022-10-24T19:22:09.896Z,6.19
2022-10-24T19:24:36.545Z,6.37
2022-10-24T19:27:03.245Z,6.29
2022-10-24T19:29:29.923Z,6.20
2022-10-24T19:31:57.101Z,6.34
2022-10-24T19:34:23.649Z,6.36
2022-10-24T19:36:50.220Z,6.26
2022-10-24T19:39:16.799Z,6.34
2022-10-24T19:41:43.494Z,6.42
2022-10-24T19:44:10.167Z,6.29
2022-10-24T19:46:36.783Z,6.31
2022-10-24T19:49:03.883Z,6.47
2022-10-24T19:51:30.475Z,6.31
2022-10-24T19:53:57.207Z,6.28
2022-10-24T19:56:26.318Z,6.47
2022-10-24T19:58:55.449Z,6.38
2022-10-24T20:01:24.789Z,6.31
2022-10-24T20:03:52.473Z,6.45
2022-10-24T20:06:19.591Z,6.43
2022-10-24T20:08:49.513Z,6.33
2022-10-24T20:11:16.890Z,6.43
2022-10-24T20:13:46.043Z,6.48
2022-10-24T20:16:13.485Z,6.35
2022-10-24T20:21:11.133Z,6.56
2022-10-24T20:23:39.400Z,6.41
2022-10-24T20:26:12.376Z,6.44
2022-10-24T20:28:43.183Z,6.58
2022-10-24T20:31:19.920Z,6.46
2022-10-24T20:33:46.581Z,6.50
2022-10-24T20:36:13.353Z,6.63
2022-10-24T20:38:39.984Z,6.48
2022-10-24T20:41:06.619Z,6.56
2022-10-24T20:43:33.235Z,6.66
2022-10-24T20:46:03.000Z,6.52
2022-10-24T20:48:31.551Z,6.58
2022-10-24T20:51:09.795Z,6.68
2022-10-24T20:53:37.525Z,6.54
2022-10-24T20:56:06.652Z,6.66
2022-10-24T20:58:36.871Z,6.72
2022-10-24T21:01:11.677Z,6.55
2022-10-24T21:03:40.888Z,6.67
2022-10-24T21:06:25.416Z,6.70
2022-10-24T21:08:56.637Z,6.59
2022-10-24T21:11:27.493Z,6.68
2022-10-24T21:13:59.411Z,6.72
2022-10-24T21:16:26.881Z,6.58
2022-10-24T21:18:54.216Z,6.70
2022-10-24T21:21:24.264Z,6.69
2022-10-24T21:23:53.131Z,6.58
2022-10-24T21:26:20.558Z,6.68
2022-10-24T21:28:47.168Z,6.72
2022-10-24T21:31:16.532Z,6.61
2022-10-24T21:33:43.569Z,6.75
2022-10-24T21:36:14.268Z,6.75
2022-10-24T21:38:42.549Z,6.63
2022-10-24T21:41:10.485Z,6.80
2022-10-24T21:43:42.220Z,6.71
2022-10-24T21:46:09.999Z,6.66
2022-10-24T21:48:39.293Z,6.82
2022-10-24T21:51:07.414Z,6.80
2022-10-24T21:53:45.548Z,6.72
2022-10-24T21:56:14.588Z,6.87
2022-10-24T21:58:46.127Z,6.78
2022-10-24T22:01:16.017Z,6.70
2022-10-24T22:03:43.373Z,6.86
2022-10-24T22:06:15.992Z,6.77
2022-10-24T22:08:44.853Z,6.70
2022-10-24T22:11:14.231Z,6.86
2022-10-24T22:13:43.657Z,6.85
2022-10-24T22:16:12.072Z,6.78
2022-10-24T22:18:39.795Z,6.93
2022-10-24T22:21:09.865Z,6.85
2022-10-24T22:23:37.111Z,6.84
2022-10-24T22:26:04.669Z,6.97
2022-10-24T22:28:31.431Z,6.86
2022-10-24T22:30:58.464Z,6.82
2022-10-24T22:33:34.229Z,7.02
2022-10-24T22:36:12.087Z,6.89
2022-10-24T22:38:38.950Z,6.93
2022-10-24T22:41:06.006Z,7.02
2022-10-24T22:43:33.925Z,6.85
2022-10-24T22:46:27.287Z,6.87
2022-10-24T22:48:59.897Z,7.03
2022-10-24T22:51:29.292Z,6.93
2022-10-24T22:53:56.183Z,6.96
2022-10-24T22:56:33.311Z,7.07
2022-10-24T22:59:01.605Z,6.93
2022-10-24T23:02:15.898Z,7.00
2022-10-24T23:04:59.944Z,6.98
2022-10-24T23:07:35.081Z,6.88
2022-10-24T23:10:01.750Z,7.02
2022-10-24T23:12:28.656Z,6.95
2022-10-24T23:14:55.548Z,6.93
2022-10-24T23:17:28.274Z,7.07
2022-10-24T23:19:58.769Z,7.00
2022-10-24T23:22:34.832Z,6.97
2022-10-24T23:25:01.992Z,7.12
2022-10-24T23:27:40.039Z,6.99
2022-10-24T23:30:10.164Z,6.97
2022-10-24T23:32:41.284Z,7.10
2022-10-24T23:35:09.027Z,6.97
2022-10-24T23:37:43.888Z,7.00
2022-10-24T23:40:29.170Z,7.09
2022-10-24T23:42:58.863Z,6.97
2022-10-24T23:45:37.260Z,7.04
2022-10-24T23:48:23.574Z,7.10
2022-10-24T23:51:10.289Z,6.97
2022-10-24T23:53:36.880Z,7.09
2022-10-24T23:56:03.911Z,7.10
2022-10-24T23:58:30.561Z,7.03
